Time;durP1;ratioP1;P1;durP2;ratioP2;P2;SDS_P1;SDS_P2;PMS_P1;PMS_P2;Temp;Humidity;BMP_temperature;BMP_pressure;BME280_temperature;BME280_humidity;BME280_pressure;Samples;Min_cycle;Max_cycle;Signal;HPM_P1;HPM_P2
2022/01/24 00:01:51;;;;;;;76.40;12.70;;;;;;;;;;5101533;28;20688;-73
2022/01/24 00:04:18;;;;;;;75.45;14.00;;;;;;;;;;5112705;28;20620;-74
2022/01/24 00:06:46;;;;;;;72.85;12.05;;;;;;;;;;5112840;28;20630;-73
2022/01/24 00:09:13;;;;;;;70.20;10.60;;;;;;;;;;5112620;28;20278;-74
2022/01/24 00:11:46;;;;;;;68.88;9.25;;;;;;;;;;5112217;28;20288;-74
2022/01/24 00:14:50;;;;;;;73.40;10.68;;;;;;;;;;5112928;28;20204;-74
2022/01/24 00:17:30;;;;;;;66.10;9.98;;;;;;;;;;5112575;28;20208;-74
2022/01/24 00:28:17;;;;;;;67.68;9.90;;;;;;;;;;5112132;28;20235;-73
2022/01/24 00:30:44;;;;;;;69.13;11.00;;;;;;;;;;5112685;28;20195;-73
2022/01/24 00:33:11;;;;;;;67.55;10.40;;;;;;;;;;5104257;28;20289;-74
2022/01/24 00:35:39;;;;;;;70.68;12.27;;;;;;;;;;5092154;28;20707;-74
2022/01/24 00:38:06;;;;;;;69.57;9.90;;;;;;;;;;5091455;28;20216;-74
2022/01/24 00:40:37;;;;;;;76.68;12.75;;;;;;;;;;5092178;28;20295;-74
2022/01/24 00:43:10;;;;;;;79.63;14.40;;;;;;;;;;5091848;28;20221;-74
2022/01/24 00:45:52;;;;;;;74.65;12.00;;;;;;;;;;5091970;28;20232;-74
2022/01/24 00:54:01;;;;;;;71.13;11.45;;;;;;;;;;5091703;28;20305;-74
2022/01/24 00:56:29;;;;;;;69.03;11.40;;;;;;;;;;5091969;28;20212;-74
2022/01/24 00:58:56;;;;;;;69.43;11.35;;;;;;;;;;5091500;28;20201;-73
2022/01/24 01:01:24;;;;;;;70.63;10.45;;;;;;;;;;5091956;28;20296;-74
2022/01/24 01:03:52;;;;;;;73.82;11.63;;;;;;;;;;5091277;28;20228;-74
2022/01/24 01:06:19;;;;;;;69.25;11.45;;;;;;;;;;5090775;28;20317;-73
2022/01/24 01:20:01;;;;;;;70.95;10.90;;;;;;;;;;5078421;28;20269;-73
2022/01/24 01:22:28;;;;;;;73.72;11.65;;;;;;;;;;5091600;28;20293;-73
2022/01/24 01:24:56;;;;;;;69.28;10.13;;;;;;;;;;5091416;28;20215;-74
2022/01/24 01:27:28;;;;;;;69.47;12.57;;;;;;;;;;5091367;28;20586;-74
2022/01/24 01:29:59;;;;;;;69.80;10.88;;;;;;;;;;5091934;28;20294;-74
2022/01/24 01:32:48;;;;;;;69.05;11.45;;;;;;;;;;5091062;28;20225;-73
2022/01/24 01:35:32;;;;;;;70.40;11.23;;;;;;;;;;5091122;28;20215;-74
2022/01/24 01:38:23;;;;;;;69.30;10.57;;;;;;;;;;5111082;28;20201;-73
2022/01/24 01:55:08;;;;;;;70.57;10.57;;;;;;;;;;5111630;28;20680;-74
2022/01/24 01:57:35;;;;;;;69.65;9.77;;;;;;;;;;5111404;28;20291;-73
2022/01/24 02:00:02;;;;;;;66.43;10.02;;;;;;;;;;5111473;28;20287;-74
2022/01/24 02:02:30;;;;;;;66.63;9.95;;;;;;;;;;5111688;28;20225;-74
2022/01/24 02:04:58;;;;;;;68.18;11.07;;;;;;;;;;5111782;28;20652;-74
2022/01/24 02:07:25;;;;;;;68.75;10.63;;;;;;;;;;5111425;28;20230;-73
2022/01/24 02:09:52;;;;;;;70.78;10.27;;;;;;;;;;5091946;28;20319;-74
2022/01/24 02:12:24;;;;;;;71.57;11.40;;;;;;;;;;5090945;28;20257;-74
2022/01/24 02:14:56;;;;;;;65.97;9.60;;;;;;;;;;5094859;28;20193;-73
2022/01/24 02:17:31;;;;;;;69.35;9.20;;;;;;;;;;5094564;28;20663;-73
2022/01/24 02:20:14;;;;;;;69.15;9.90;;;;;;;;;;5095095;28;20208;-73
2022/01/24 02:22:49;;;;;;;66.10;10.18;;;;;;;;;;5094640;28;20228;-74
2022/01/24 02:25:26;;;;;;;67.95;10.02;;;;;;;;;;5094451;28;20204;-74
2022/01/24 02:27:58;;;;;;;67.57;10.45;;;;;;;;;;5094085;28;20258;-73
2022/01/24 02:33:12;;;;;;;70.93;10.13;;;;;;;;;;5090472;28;20696;-73
2022/01/24 02:35:40;;;;;;;65.70;9.27;;;;;;;;;;5094714;28;20621;-74
2022/01/24 02:38:17;;;;;;;66.38;9.27;;;;;;;;;;5094469;28;20262;-74
2022/01/24 02:45:59;;;;;;;68.95;10.50;;;;;;;;;;5093341;28;20679;-74
2022/01/24 02:48:57;;;;;;;68.25;9.98;;;;;;;;;;5070917;28;20225;-73
2022/01/24 02:51:41;;;;;;;71.78;9.35;;;;;;;;;;5094123;28;20204;-74
2022/01/24 02:54:18;;;;;;;66.05;8.30;;;;;;;;;;5094433;28;20209;-74
2022/01/24 02:56:45;;;;;;;68.38;10.98;;;;;;;;;;5094271;28;20288;-73
2022/01/24 02:59:13;;;;;;;69.93;10.18;;;;;;;;;;5093803;28;20203;-74
2022/01/24 03:01:41;;;;;;;69.38;10.63;;;;;;;;;;5093910;28;20288;-73
2022/01/24 03:04:08;;;;;;;73.00;11.00;;;;;;;;;;5094058;28;20204;-74
2022/01/24 03:06:36;;;;;;;68.07;10.57;;;;;;;;;;5094163;28;20296;-73
2022/01/24 03:09:04;;;;;;;67.80;10.13;;;;;;;;;;5093398;28;20225;-74
2022/01/24 03:11:55;;;;;;;70.75;10.82;;;;;;;;;;5093616;28;20232;-74
2022/01/24 03:14:23;;;;;;;69.15;9.23;;;;;;;;;;5093607;28;20270;-74
2022/01/24 03:16:50;;;;;;;71.18;10.15;;;;;;;;;;5094058;28;20327;-73
2022/01/24 03:19:17;;;;;;;68.75;10.25;;;;;;;;;;5093439;28;20377;-74
2022/01/24 03:21:44;;;;;;;67.60;10.10;;;;;;;;;;5107103;28;20299;-73
2022/01/24 03:24:11;;;;;;;71.22;10.05;;;;;;;;;;5113263;28;20318;-74
2022/01/24 03:26:40;;;;;;;67.22;10.43;;;;;;;;;;5113550;28;20204;-73
2022/01/24 03:29:07;;;;;;;69.70;10.77;;;;;;;;;;5113248;28;20305;-74
2022/01/24 03:31:35;;;;;;;67.35;11.02;;;;;;;;;;5114146;28;20299;-74
2022/01/24 03:34:02;;;;;;;70.20;10.77;;;;;;;;;;5113647;28;20752;-74
2022/01/24 03:36:29;;;;;;;68.07;10.40;;;;;;;;;;5113898;28;20643;-74
2022/01/24 03:38:57;;;;;;;73.72;12.48;;;;;;;;;;5114094;28;20224;-73
2022/01/24 03:41:24;;;;;;;68.63;10.00;;;;;;;;;;5115069;28;20200;-73
2022/01/24 03:43:53;;;;;;;71.13;11.98;;;;;;;;;;5113038;28;20315;-70
2022/01/24 03:46:28;;;;;;;71.60;10.98;;;;;;;;;;5111583;28;20263;-73
2022/01/24 03:49:07;;;;;;;75.10;11.85;;;;;;;;;;5113342;28;20254;-73
2022/01/24 03:51:34;;;;;;;70.50;12.40;;;;;;;;;;5113782;28;20192;-73
2022/01/24 03:54:02;;;;;;;67.68;10.77;;;;;;;;;;5113265;28;20223;-73
2022/01/24 03:56:29;;;;;;;71.15;11.10;;;;;;;;;;5113167;28;20315;-73
2022/01/24 03:58:57;;;;;;;72.35;11.88;;;;;;;;;;5113257;28;20610;-73
2022/01/24 04:01:24;;;;;;;72.13;11.13;;;;;;;;;;5113289;28;20295;-74
2022/01/24 04:03:52;;;;;;;72.28;10.57;;;;;;;;;;5113380;27;20220;-74
2022/01/24 04:06:20;;;;;;;72.20;11.73;;;;;;;;;;5113030;28;20204;-74
2022/01/24 04:08:48;;;;;;;70.18;11.13;;;;;;;;;;5112799;28;20673;-74
2022/01/24 04:11:15;;;;;;;72.70;12.07;;;;;;;;;;5113204;28;20202;-74
2022/01/24 04:13:44;;;;;;;73.43;12.65;;;;;;;;;;5112951;28;20315;-74
2022/01/24 04:16:26;;;;;;;75.25;14.02;;;;;;;;;;5112852;28;20579;-74
2022/01/24 04:19:00;;;;;;;72.95;13.50;;;;;;;;;;5111149;28;20218;-74
2022/01/24 04:21:29;;;;;;;80.45;13.35;;;;;;;;;;5112975;28;20268;-74
2022/01/24 04:24:01;;;;;;;75.03;12.65;;;;;;;;;;5113276;28;20246;-74
2022/01/24 04:26:28;;;;;;;70.63;11.57;;;;;;;;;;5113305;28;20243;-74
2022/01/24 04:28:55;;;;;;;76.90;12.05;;;;;;;;;;5112673;28;20243;-74
2022/01/24 04:31:24;;;;;;;72.22;12.32;;;;;;;;;;5113021;28;20287;-74
2022/01/24 04:33:51;;;;;;;75.82;12.63;;;;;;;;;;5112483;28;20224;-74
2022/01/24 04:36:19;;;;;;;71.32;10.93;;;;;;;;;;5112784;28;20630;-74
2022/01/24 04:38:47;;;;;;;75.88;11.15;;;;;;;;;;5112481;28;20211;-74
2022/01/24 04:41:19;;;;;;;73.53;10.90;;;;;;;;;;5112759;28;20303;-74
2022/01/24 04:43:55;;;;;;;70.38;11.27;;;;;;;;;;5112492;28;20228;-74
2022/01/24 04:51:56;;;;;;;73.57;11.02;;;;;;;;;;5089283;28;20574;-74
2022/01/24 04:54:39;;;;;;;73.95;11.45;;;;;;;;;;5112569;28;20265;-74
2022/01/24 04:57:08;;;;;;;73.88;12.10;;;;;;;;;;5112581;28;20204;-74
2022/01/24 04:59:35;;;;;;;71.30;10.93;;;;;;;;;;5112557;28;20580;-74
2022/01/24 05:02:04;;;;;;;70.40;10.25;;;;;;;;;;5112258;28;20227;-74
2022/01/24 05:04:31;;;;;;;67.72;9.80;;;;;;;;;;5112285;28;20231;-74
2022/01/24 05:06:58;;;;;;;71.07;10.07;;;;;;;;;;5112164;28;20664;-74
2022/01/24 05:09:28;;;;;;;70.88;10.32;;;;;;;;;;5112006;28;20609;-74
2022/01/24 05:12:00;;;;;;;72.55;11.15;;;;;;;;;;5112163;28;20215;-74
2022/01/24 05:25:27;;;;;;;73.22;12.43;;;;;;;;;;5091801;28;20227;-74
2022/01/24 05:27:54;;;;;;;70.13;10.50;;;;;;;;;;5091209;28;20215;-74
2022/01/24 05:30:21;;;;;;;72.20;11.20;;;;;;;;;;5091825;28;20608;-74
2022/01/24 05:32:50;;;;;;;68.07;11.00;;;;;;;;;;5091667;28;20254;-73
2022/01/24 05:35:17;;;;;;;69.40;9.40;;;;;;;;;;5091632;28;20205;-73
2022/01/24 05:37:44;;;;;;;73.35;11.77;;;;;;;;;;5092242;28;20209;-73
2022/01/24 05:40:11;;;;;;;70.32;11.80;;;;;;;;;;5091761;28;20292;-74
2022/01/24 05:42:39;;;;;;;69.00;11.02;;;;;;;;;;5091166;28;20315;-74
2022/01/24 05:45:06;;;;;;;68.60;10.82;;;;;;;;;;5091795;28;20292;-74
2022/01/24 05:47:34;;;;;;;75.35;11.15;;;;;;;;;;5091463;28;20292;-73
2022/01/24 05:50:02;;;;;;;75.10;11.75;;;;;;;;;;5095451;28;20709;-73
2022/01/24 05:52:29;;;;;;;70.85;10.55;;;;;;;;;;5094252;28;20233;-73
2022/01/24 05:54:57;;;;;;;69.35;10.57;;;;;;;;;;5095184;28;20280;-73
2022/01/24 05:57:24;;;;;;;71.82;11.68;;;;;;;;;;5095173;28;20628;-73
2022/01/24 05:59:51;;;;;;;72.15;11.60;;;;;;;;;;5095438;28;20197;-73
2022/01/24 06:02:18;;;;;;;71.15;12.20;;;;;;;;;;5095195;28;20313;-73
2022/01/24 06:04:45;;;;;;;70.65;11.27;;;;;;;;;;5095459;28;20478;-73
2022/01/24 06:07:14;;;;;;;72.57;11.18;;;;;;;;;;5094808;28;20299;-73
2022/01/24 06:09:41;;;;;;;68.13;10.80;;;;;;;;;;5094997;28;20234;-73
2022/01/24 06:12:10;;;;;;;67.70;9.90;;;;;;;;;;5095110;28;20279;-73
2022/01/24 06:14:37;;;;;;;72.22;10.77;;;;;;;;;;5095076;28;20232;-73
2022/01/24 06:17:05;;;;;;;68.10;9.88;;;;;;;;;;5095060;28;20637;-73
2022/01/24 06:19:32;;;;;;;69.00;9.90;;;;;;;;;;5094736;28;20201;-73
2022/01/24 06:21:59;;;;;;;70.30;11.73;;;;;;;;;;5095210;28;22019;-73
2022/01/24 06:24:28;;;;;;;67.60;9.95;;;;;;;;;;5094641;28;20749;-73
2022/01/24 06:26:55;;;;;;;66.63;9.48;;;;;;;;;;5095038;28;20211;-72
2022/01/24 06:29:22;;;;;;;67.22;8.85;;;;;;;;;;5094744;28;20291;-73
2022/01/24 06:31:49;;;;;;;67.72;9.30;;;;;;;;;;5094831;28;20670;-73
2022/01/24 06:34:16;;;;;;;70.72;8.80;;;;;;;;;;5094878;28;20630;-73
2022/01/24 06:36:43;;;;;;;65.78;8.75;;;;;;;;;;5094964;28;20205;-73
2022/01/24 06:39:12;;;;;;;67.05;8.35;;;;;;;;;;5094800;28;20201;-73
2022/01/24 06:41:42;;;;;;;65.88;9.32;;;;;;;;;;5094725;28;20270;-73
2022/01/24 06:44:10;;;;;;;65.70;8.77;;;;;;;;;;5094971;28;20208;-73
2022/01/24 06:46:37;;;;;;;65.47;9.85;;;;;;;;;;5094843;28;20297;-74
2022/01/24 06:49:05;;;;;;;67.75;9.43;;;;;;;;;;5094375;28;20215;-75
2022/01/24 06:51:32;;;;;;;71.00;10.27;;;;;;;;;;5095086;28;20661;-74
2022/01/24 06:54:00;;;;;;;67.45;9.95;;;;;;;;;;5097159;28;20287;-74
2022/01/24 06:56:27;;;;;;;68.28;10.60;;;;;;;;;;5109332;28;20229;-74
2022/01/24 06:58:55;;;;;;;68.68;10.68;;;;;;;;;;5109146;28;20228;-74
2022/01/24 07:01:22;;;;;;;65.88;8.10;;;;;;;;;;5109271;28;20288;-74
2022/01/24 07:03:49;;;;;;;66.70;9.48;;;;;;;;;;5109757;28;20257;-74
2022/01/24 07:06:17;;;;;;;67.65;9.95;;;;;;;;;;5109771;28;20553;-74
2022/01/24 07:08:44;;;;;;;65.40;8.45;;;;;;;;;;5109551;28;20251;-74
2022/01/24 07:11:11;;;;;;;69.22;9.63;;;;;;;;;;5102779;28;20225;-74
2022/01/24 07:13:38;;;;;;;66.03;7.97;;;;;;;;;;5094389;28;20232;-74
2022/01/24 07:16:07;;;;;;;75.75;9.35;;;;;;;;;;5093724;28;20588;-75
2022/01/24 07:21:19;;;;;;;70.82;10.85;;;;;;;;;;5093820;28;20258;-75
2022/01/24 07:23:46;;;;;;;66.13;8.90;;;;;;;;;;5093455;28;20227;-74
2022/01/24 07:26:13;;;;;;;68.80;9.50;;;;;;;;;;5093626;28;20205;-74
2022/01/24 07:28:41;;;;;;;66.43;9.80;;;;;;;;;;5093187;28;20209;-74
2022/01/24 07:31:09;;;;;;;65.90;10.00;;;;;;;;;;5093400;28;20240;-74
2022/01/24 07:33:36;;;;;;;69.85;10.20;;;;;;;;;;5093434;28;20229;-74
2022/01/24 07:36:03;;;;;;;71.68;10.90;;;;;;;;;;5094144;28;20215;-73
2022/01/24 07:38:31;;;;;;;70.13;11.10;;;;;;;;;;5093448;28;20211;-74
2022/01/24 07:41:00;;;;;;;78.15;12.65;;;;;;;;;;5093423;28;20299;-75
2022/01/24 07:43:27;;;;;;;69.07;9.40;;;;;;;;;;5093190;28;20701;-74
2022/01/24 07:45:54;;;;;;;72.80;10.73;;;;;;;;;;5093188;28;20300;-74
2022/01/24 07:48:23;;;;;;;67.57;9.30;;;;;;;;;;5093154;28;20292;-75
2022/01/24 07:50:52;;;;;;;70.05;10.20;;;;;;;;;;5093091;28;20228;-75
2022/01/24 07:53:20;;;;;;;69.80;10.57;;;;;;;;;;5093009;28;20224;-75
2022/01/24 07:55:47;;;;;;;67.90;9.57;;;;;;;;;;5093006;28;20623;-74
2022/01/24 07:58:15;;;;;;;69.40;10.82;;;;;;;;;;5092743;28;20685;-74
2022/01/24 08:00:42;;;;;;;66.20;9.23;;;;;;;;;;5093005;28;20699;-74
2022/01/24 08:03:10;;;;;;;68.95;9.68;;;;;;;;;;5092937;28;20224;-74
2022/01/24 08:05:39;;;;;;;76.35;10.98;;;;;;;;;;5092889;28;20208;-75
2022/01/24 08:08:06;;;;;;;70.05;11.20;;;;;;;;;;5092386;28;20213;-75
2022/01/24 08:10:34;;;;;;;74.43;12.48;;;;;;;;;;5091881;28;20231;-75
2022/01/24 08:13:01;;;;;;;70.45;11.40;;;;;;;;;;5092815;28;20311;-75
2022/01/24 08:15:28;;;;;;;69.55;10.35;;;;;;;;;;5092750;28;20205;-74
2022/01/24 08:17:56;;;;;;;67.85;10.27;;;;;;;;;;5092526;28;20299;-74
2022/01/24 08:20:23;;;;;;;71.47;10.38;;;;;;;;;;5092664;28;20239;-74
2022/01/24 08:22:52;;;;;;;68.32;10.90;;;;;;;;;;5092296;28;20229;-74
2022/01/24 08:25:19;;;;;;;69.13;10.70;;;;;;;;;;5092531;28;20209;-74
2022/01/24 08:27:47;;;;;;;70.60;11.30;;;;;;;;;;5092239;28;20295;-74
2022/01/24 08:30:16;;;;;;;69.28;11.35;;;;;;;;;;5092336;28;20739;-74
2022/01/24 08:32:43;;;;;;;73.30;12.20;;;;;;;;;;5092365;28;20231;-74
2022/01/24 08:35:11;;;;;;;70.90;11.27;;;;;;;;;;5092332;28;20215;-74
2022/01/24 08:37:38;;;;;;;68.53;11.07;;;;;;;;;;5091889;28;20736;-75
2022/01/24 08:40:07;;;;;;;68.93;11.02;;;;;;;;;;5092531;28;20295;-75
2022/01/24 08:42:39;;;;;;;67.55;10.40;;;;;;;;;;5092204;28;20235;-74
2022/01/24 08:47:51;;;;;;;66.65;10.70;;;;;;;;;;5092012;28;20265;-74
2022/01/24 08:50:25;;;;;;;68.93;10.00;;;;;;;;;;5092325;28;20608;-74
2022/01/24 08:52:52;;;;;;;69.55;11.85;;;;;;;;;;5092449;28;20228;-74
2022/01/24 08:55:21;;;;;;;70.00;12.02;;;;;;;;;;5092226;28;20244;-75
2022/01/24 08:57:48;;;;;;;69.97;10.82;;;;;;;;;;5092032;28;20756;-74
2022/01/24 09:00:16;;;;;;;74.53;12.13;;;;;;;;;;5092071;28;20201;-74
2022/01/24 09:02:43;;;;;;;68.85;11.45;;;;;;;;;;5092014;28;20596;-75
2022/01/24 09:05:10;;;;;;;70.50;11.45;;;;;;;;;;5092043;28;20305;-74
2022/01/24 09:07:37;;;;;;;70.93;10.85;;;;;;;;;;5091776;28;20213;-74
2022/01/24 09:10:05;;;;;;;71.50;11.18;;;;;;;;;;5091929;28;20232;-75
2022/01/24 09:12:34;;;;;;;70.40;10.73;;;;;;;;;;5091790;28;20644;-75
2022/01/24 09:15:01;;;;;;;74.68;12.23;;;;;;;;;;5092034;28;20236;-75
2022/01/24 09:17:28;;;;;;;65.80;10.10;;;;;;;;;;5091781;28;20307;-75
2022/01/24 09:19:55;;;;;;;71.47;11.70;;;;;;;;;;5092056;28;20581;-76
2022/01/24 09:22:23;;;;;;;69.03;11.63;;;;;;;;;;5093251;28;20259;-75
2022/01/24 09:24:50;;;;;;;70.65;11.27;;;;;;;;;;5095997;28;20685;-75
2022/01/24 09:27:17;;;;;;;70.80;12.40;;;;;;;;;;5095752;28;20204;-75
2022/01/24 09:29:45;;;;;;;70.32;11.48;;;;;;;;;;5095756;28;20215;-75
2022/01/24 09:32:12;;;;;;;73.78;12.40;;;;;;;;;;5096673;28;20245;-75
2022/01/24 09:34:40;;;;;;;71.65;11.60;;;;;;;;;;5097643;28;20582;-75
2022/01/24 09:37:07;;;;;;;70.53;11.50;;;;;;;;;;5095680;28;20205;-75
2022/01/24 09:39:34;;;;;;;67.80;10.95;;;;;;;;;;5095791;28;20644;-75
2022/01/24 09:42:02;;;;;;;70.50;10.30;;;;;;;;;;5096961;28;20224;-71
2022/01/24 09:44:29;;;;;;;66.30;9.75;;;;;;;;;;5115979;28;20294;-73
2022/01/24 09:46:57;;;;;;;66.80;8.82;;;;;;;;;;5115986;27;20579;-72
2022/01/24 09:49:24;;;;;;;70.40;11.52;;;;;;;;;;5113822;28;20721;-72
2022/01/24 09:51:51;;;;;;;66.75;9.07;;;;;;;;;;5115541;28;20711;-72
2022/01/24 09:54:19;;;;;;;77.85;9.73;;;;;;;;;;5115678;28;20210;-72
2022/01/24 09:56:46;;;;;;;70.00;9.10;;;;;;;;;;5115523;28;20284;-72
2022/01/24 09:59:13;;;;;;;63.50;8.47;;;;;;;;;;5115213;28;20671;-70
2022/01/24 10:01:42;;;;;;;63.37;8.07;;;;;;;;;;5115658;28;20532;-72
2022/01/24 10:04:12;;;;;;;61.37;6.37;;;;;;;;;;5115480;28;20457;-72
2022/01/24 10:07:02;;;;;;;62.42;6.50;;;;;;;;;;5115390;28;20537;-72
2022/01/24 10:09:30;;;;;;;63.47;6.73;;;;;;;;;;5115398;28;20209;-75
2022/01/24 10:12:13;;;;;;;66.33;5.90;;;;;;;;;;5115417;28;20906;-72
2022/01/24 10:17:26;;;;;;;63.00;6.27;;;;;;;;;;5115181;28;20413;-72
2022/01/24 10:19:55;;;;;;;60.80;5.00;;;;;;;;;;5113997;28;20457;-72
2022/01/24 10:22:24;;;;;;;61.00;5.50;;;;;;;;;;5115185;28;20458;-72
2022/01/24 10:24:54;;;;;;;60.37;5.07;;;;;;;;;;5115194;28;20449;-72
2022/01/24 10:27:23;;;;;;;62.33;5.50;;;;;;;;;;5114934;28;20450;-72
2022/01/24 10:29:51;;;;;;;65.17;5.57;;;;;;;;;;5115012;28;20490;-72
2022/01/24 10:32:47;;;;;;;61.30;5.93;;;;;;;;;;5114616;28;20489;-72
2022/01/24 10:35:26;;;;;;;60.20;5.60;;;;;;;;;;5078500;28;20462;-72
2022/01/24 10:37:55;;;;;;;60.30;5.10;;;;;;;;;;5114733;28;20450;-72
2022/01/24 10:40:34;;;;;;;60.43;5.00;;;;;;;;;;5114620;28;20450;-72
2022/01/24 10:43:16;;;;;;;60.60;4.87;;;;;;;;;;5114710;28;20468;-73
2022/01/24 10:45:44;;;;;;;63.30;4.77;;;;;;;;;;5114905;28;20468;-76
2022/01/24 10:48:11;;;;;;;60.77;5.30;;;;;;;;;;5114540;27;20481;-73
2022/01/24 10:50:40;;;;;;;60.10;4.60;;;;;;;;;;5112014;28;20882;-73
2022/01/24 10:53:11;;;;;;;60.83;5.03;;;;;;;;;;5114714;28;20474;-75
2022/01/24 10:55:40;;;;;;;62.20;4.73;;;;;;;;;;5114610;28;20452;-74
2022/01/24 10:58:08;;;;;;;60.00;4.80;;;;;;;;;;5114329;28;20481;-74
2022/01/24 11:00:36;;;;;;;60.10;4.50;;;;;;;;;;5114608;28;20529;-74
2022/01/24 11:03:04;;;;;;;59.60;5.37;;;;;;;;;;5114204;28;21045;-74
2022/01/24 11:05:34;;;;;;;59.80;4.97;;;;;;;;;;5114232;28;20485;-73
2022/01/24 11:08:04;;;;;;;59.50;4.50;;;;;;;;;;5114064;28;20896;-72
2022/01/24 11:10:34;;;;;;;63.80;4.90;;;;;;;;;;5114328;28;20530;-73
2022/01/24 11:13:03;;;;;;;59.80;4.67;;;;;;;;;;5114019;27;20489;-74
2022/01/24 11:15:30;;;;;;;61.00;5.03;;;;;;;;;;5114195;28;20473;-75
2022/01/24 11:17:59;;;;;;;59.27;4.17;;;;;;;;;;5113585;28;20540;-74
2022/01/24 11:20:30;;;;;;;60.30;4.90;;;;;;;;;;5114231;28;20464;-74
2022/01/24 11:23:00;;;;;;;59.40;4.53;;;;;;;;;;5113893;28;20470;-75
2022/01/24 11:25:30;;;;;;;59.80;4.80;;;;;;;;;;5114064;28;20458;-75
2022/01/24 11:27:57;;;;;;;59.47;4.20;;;;;;;;;;5113786;28;20450;-75
2022/01/24 11:30:30;;;;;;;59.17;4.00;;;;;;;;;;5098015;28;20538;-75
2022/01/24 11:32:59;;;;;;;60.33;4.90;;;;;;;;;;5095336;28;20497;-75
2022/01/24 11:35:30;;;;;;;60.33;4.47;;;;;;;;;;5093504;28;20453;-75
2022/01/24 11:37:58;;;;;;;59.93;4.20;;;;;;;;;;5093270;28;20525;-75
2022/01/24 11:40:26;;;;;;;58.67;3.90;;;;;;;;;;5093258;28;20988;-75
2022/01/24 11:42:54;;;;;;;59.67;4.17;;;;;;;;;;5103135;28;20475;-75
2022/01/24 11:45:42;;;;;;;59.67;4.13;;;;;;;;;;5092480;28;20526;-76
2022/01/24 11:48:15;;;;;;;62.67;5.07;;;;;;;;;;5092961;28;20447;-73
2022/01/24 11:50:42;;;;;;;59.00;4.00;;;;;;;;;;5093128;28;20814;-73
2022/01/24 11:53:23;;;;;;;59.50;4.60;;;;;;;;;;5092958;28;20470;-74
2022/01/24 11:55:54;;;;;;;59.40;4.40;;;;;;;;;;5093192;28;20443;-74
2022/01/24 11:58:28;;;;;;;60.07;4.53;;;;;;;;;;5092901;28;20455;-74
2022/01/24 12:00:57;;;;;;;59.37;4.30;;;;;;;;;;5097539;28;20529;-75
2022/01/24 12:03:26;;;;;;;59.70;4.20;;;;;;;;;;5113113;28;20458;-74
2022/01/24 12:05:56;;;;;;;60.60;4.40;;;;;;;;;;5112939;28;20457;-74
2022/01/24 12:08:31;;;;;;;61.60;5.03;;;;;;;;;;5112874;27;20838;-74
2022/01/24 12:11:12;;;;;;;59.77;4.27;;;;;;;;;;5113066;28;20485;-74
2022/01/24 12:13:44;;;;;;;59.30;3.93;;;;;;;;;;5113357;28;20519;-75
2022/01/24 12:16:11;;;;;;;61.30;4.30;;;;;;;;;;5112724;28;20458;-77
2022/01/24 12:18:50;;;;;;;59.30;4.30;;;;;;;;;;5112825;28;20534;-75
2022/01/24 12:21:18;;;;;;;60.60;4.50;;;;;;;;;;5112743;28;20942;-75
2022/01/24 12:23:45;;;;;;;58.70;3.67;;;;;;;;;;5113211;28;20472;-75
2022/01/24 12:26:22;;;;;;;60.97;4.07;;;;;;;;;;5112927;28;20821;-75
2022/01/24 12:28:53;;;;;;;59.07;4.07;;;;;;;;;;5112394;28;20445;-77
2022/01/24 12:31:22;;;;;;;60.13;4.80;;;;;;;;;;5112680;28;20519;-74
2022/01/24 12:34:00;;;;;;;60.30;4.63;;;;;;;;;;5110281;28;20470;-75
2022/01/24 12:36:48;;;;;;;59.30;3.90;;;;;;;;;;5112705;28;20533;-74
2022/01/24 12:39:16;;;;;;;59.27;4.13;;;;;;;;;;5112440;28;20522;-74
2022/01/24 12:41:47;;;;;;;58.67;3.67;;;;;;;;;;5112804;28;20481;-74
2022/01/24 12:46:58;;;;;;;60.67;4.10;;;;;;;;;;5112109;28;20953;-74
2022/01/24 12:49:27;;;;;;;59.40;4.30;;;;;;;;;;5112195;28;20447;-74
2022/01/24 12:51:55;;;;;;;60.60;3.80;;;;;;;;;;5112220;28;20442;-74
2022/01/24 12:54:29;;;;;;;60.33;4.03;;;;;;;;;;5112154;28;20442;-74
2022/01/24 12:56:59;;;;;;;60.90;4.00;;;;;;;;;;5112200;28;20445;-74
2022/01/24 12:59:27;;;;;;;58.80;3.70;;;;;;;;;;5112123;28;20441;-74
2022/01/24 13:01:57;;;;;;;60.60;3.87;;;;;;;;;;5112266;28;20492;-74
2022/01/24 13:04:31;;;;;;;65.70;6.60;;;;;;;;;;5110124;28;20454;-73
2022/01/24 13:06:59;;;;;;;59.83;4.67;;;;;;;;;;5112117;28;21028;-73
2022/01/24 13:09:26;;;;;;;60.27;4.43;;;;;;;;;;5111934;28;20456;-73
2022/01/24 13:11:54;;;;;;;64.40;3.73;;;;;;;;;;5112070;28;20529;-73
2022/01/24 13:14:26;;;;;;;58.90;3.50;;;;;;;;;;5111972;28;21045;-75
2022/01/24 13:22:32;;;;;;;59.97;3.87;;;;;;;;;;5112058;28;20856;-76
2022/01/24 13:25:07;;;;;;;60.90;4.67;;;;;;;;;;5111855;28;20445;-76
2022/01/24 13:27:35;;;;;;;59.00;3.57;;;;;;;;;;5112015;28;20475;-75
2022/01/24 13:30:02;;;;;;;59.17;3.87;;;;;;;;;;5112559;28;20537;-76
2022/01/24 13:32:44;;;;;;;60.47;4.00;;;;;;;;;;5112003;28;20568;-75
2022/01/24 13:35:15;;;;;;;60.30;4.10;;;;;;;;;;5114164;28;20457;-75
2022/01/24 13:37:42;;;;;;;60.20;4.23;;;;;;;;;;5115243;28;20874;-74
2022/01/24 13:40:10;;;;;;;59.10;3.80;;;;;;;;;;5119930;28;20438;-75
2022/01/24 13:42:37;;;;;;;59.60;4.10;;;;;;;;;;5111758;28;20560;-76
2022/01/24 13:45:05;;;;;;;60.60;3.80;;;;;;;;;;5111974;28;20450;-75
2022/01/24 13:47:32;;;;;;;59.07;3.77;;;;;;;;;;5111651;28;20452;-75
2022/01/24 13:50:00;;;;;;;61.27;4.10;;;;;;;;;;5111799;28;20446;-74
2022/01/24 13:52:29;;;;;;;60.97;4.60;;;;;;;;;;5112021;28;20552;-75
2022/01/24 13:55:13;;;;;;;61.13;4.03;;;;;;;;;;5112054;28;20546;-77
2022/01/24 13:57:47;;;;;;;60.50;4.30;;;;;;;;;;5111754;28;20536;-75
2022/01/24 14:00:16;;;;;;;62.90;4.00;;;;;;;;;;5111939;28;20458;-76
2022/01/24 14:02:43;;;;;;;59.47;3.93;;;;;;;;;;5111775;28;20486;-76
2022/01/24 14:05:12;;;;;;;59.80;4.27;;;;;;;;;;5111767;28;20934;-75
2022/01/24 14:07:42;;;;;;;62.20;5.33;;;;;;;;;;5111602;28;20983;-76
2022/01/24 14:10:11;;;;;;;60.87;4.10;;;;;;;;;;5114488;28;20449;-76
2022/01/24 14:12:50;;;;;;;59.70;3.90;;;;;;;;;;5115334;28;20548;-76
2022/01/24 14:15:23;;;;;;;59.40;3.97;;;;;;;;;;5115445;28;20467;-76
2022/01/24 14:20:50;;;;;;;67.80;4.37;;;;;;;;;;5109751;28;20426;-75
2022/01/24 14:23:21;;;;;;;60.90;4.10;;;;;;;;;;5114957;28;20527;-75
2022/01/24 14:25:49;;;;;;;60.77;3.90;;;;;;;;;;5115427;28;20449;-74
2022/01/24 14:28:18;;;;;;;59.30;3.93;;;;;;;;;;5115038;28;20869;-74
2022/01/24 14:30:46;;;;;;;59.20;3.80;;;;;;;;;;5115131;28;20533;-75
2022/01/24 14:33:14;;;;;;;62.83;4.90;;;;;;;;;;5115081;28;20596;-75
2022/01/24 14:35:49;;;;;;;59.97;4.37;;;;;;;;;;5115085;28;20446;-74
2022/01/24 14:38:28;;;;;;;60.20;4.07;;;;;;;;;;5114714;27;20882;-74
2022/01/24 14:41:00;;;;;;;60.33;4.20;;;;;;;;;;5115438;28;20653;-74
2022/01/24 14:46:15;;;;;;;60.97;4.00;;;;;;;;;;5114863;28;20422;-75
2022/01/24 14:48:49;;;;;;;60.87;5.10;;;;;;;;;;5114749;28;20467;-75
2022/01/24 14:51:18;;;;;;;61.87;4.50;;;;;;;;;;5114489;28;20537;-76
2022/01/24 14:53:47;;;;;;;60.17;4.30;;;;;;;;;;5114598;28;20470;-75
2022/01/24 14:56:15;;;;;;;60.27;4.73;;;;;;;;;;5114737;28;20886;-75
2022/01/24 14:58:42;;;;;;;60.70;4.37;;;;;;;;;;5114257;28;20449;-74
2022/01/24 15:01:09;;;;;;;63.73;4.33;;;;;;;;;;5114805;28;20543;-75
2022/01/24 15:03:37;;;;;;;61.90;4.27;;;;;;;;;;5114621;28;20490;-74
2022/01/24 15:06:04;;;;;;;60.70;5.10;;;;;;;;;;5114618;28;20452;-74
2022/01/24 15:08:32;;;;;;;63.83;4.87;;;;;;;;;;5114293;28;20619;-75
2022/01/24 15:11:00;;;;;;;60.30;4.50;;;;;;;;;;5114394;28;20488;-74
2022/01/24 15:13:35;;;;;;;60.70;4.00;;;;;;;;;;5114176;28;20509;-74
2022/01/24 15:16:13;;;;;;;61.70;4.50;;;;;;;;;;5114556;28;20480;-75
2022/01/24 15:24:27;;;;;;;61.90;5.00;;;;;;;;;;5114627;28;20477;-74
2022/01/24 15:26:56;;;;;;;61.90;5.03;;;;;;;;;;5114223;27;20458;-74
2022/01/24 15:29:24;;;;;;;61.50;4.73;;;;;;;;;;5113768;28;20952;-73
2022/01/24 15:31:51;;;;;;;60.70;4.70;;;;;;;;;;5114035;28;20472;-74
2022/01/24 15:34:19;;;;;;;62.30;5.67;;;;;;;;;;5114043;28;20809;-74
2022/01/24 15:36:47;;;;;;;60.97;5.13;;;;;;;;;;5114189;28;20833;-74
2022/01/24 15:39:15;;;;;;;61.07;4.70;;;;;;;;;;5115240;28;20434;-75
2022/01/24 15:41:48;;;;;;;61.13;5.70;;;;;;;;;;5115442;28;20844;-74
2022/01/24 15:44:46;;;;;;;61.60;5.00;;;;;;;;;;5113728;28;20490;-74
2022/01/24 15:47:32;;;;;;;63.60;5.57;;;;;;;;;;5113535;28;20453;-77
2022/01/24 15:50:00;;;;;;;61.37;4.90;;;;;;;;;;5113796;28;20479;-74
2022/01/24 15:52:27;;;;;;;63.43;4.93;;;;;;;;;;5113472;28;20477;-73
2022/01/24 15:54:55;;;;;;;61.80;4.80;;;;;;;;;;5113534;28;20545;-76
2022/01/24 15:57:41;;;;;;;63.30;4.77;;;;;;;;;;5129551;28;20438;-74
2022/01/24 16:00:11;;;;;;;60.37;4.50;;;;;;;;;;5116339;28;20992;-75
2022/01/24 16:02:39;;;;;;;63.10;4.90;;;;;;;;;;5113789;28;20493;-74
2022/01/24 16:05:06;;;;;;;61.27;5.13;;;;;;;;;;5113444;28;20448;-74
2022/01/24 16:07:33;;;;;;;60.63;4.50;;;;;;;;;;5112778;28;20458;-73
2022/01/24 16:10:00;;;;;;;60.70;4.93;;;;;;;;;;5113487;28;20850;-75
2022/01/24 16:12:27;;;;;;;62.70;5.90;;;;;;;;;;5113324;28;20833;-75